createdAt,value
2019-03-15T00:01:35.608Z,14.53
2019-03-15T00:04:03.914Z,14.87
2019-03-15T00:06:32.271Z,14.33
2019-03-15T00:09:00.660Z,13.15
2019-03-15T00:11:29.419Z,14.83
2019-03-15T00:13:58.098Z,13.70
2019-03-15T00:16:26.476Z,13.58
2019-03-15T00:18:54.789Z,13.22
2019-03-15T00:21:23.142Z,13.68
2019-03-15T00:23:51.602Z,12.75
2019-03-15T00:26:19.979Z,13.25
2019-03-15T00:28:48.330Z,12.93
2019-03-15T00:31:16.732Z,13.25
2019-03-15T00:33:45.048Z,12.03
2019-03-15T00:36:13.412Z,12.73
2019-03-15T00:38:41.812Z,12.23
2019-03-15T00:41:11.023Z,12.05
2019-03-15T00:43:39.507Z,10.98
2019-03-15T00:46:08.270Z,11.15
2019-03-15T00:48:36.610Z,11.18
2019-03-15T00:51:04.983Z,11.90
2019-03-15T00:53:33.387Z,12.23
2019-03-15T00:56:01.781Z,11.10
2019-03-15T00:58:30.132Z,11.15
2019-03-15T01:00:58.593Z,12.40
2019-03-15T01:03:27.178Z,11.63
2019-03-15T01:05:55.483Z,11.57
2019-03-15T01:08:23.890Z,10.90
2019-03-15T01:10:52.274Z,12.15
2019-03-15T01:13:20.655Z,11.05
2019-03-15T01:15:49.051Z,11.80
2019-03-15T01:18:18.431Z,11.08
2019-03-15T01:20:47.293Z,10.88
2019-03-15T01:23:15.701Z,11.97
2019-03-15T01:25:44.054Z,11.08
2019-03-15T01:28:12.416Z,10.82
2019-03-15T01:30:40.848Z,11.00
2019-03-15T01:33:09.195Z,11.15
2019-03-15T01:35:37.558Z,11.00
2019-03-15T01:38:05.958Z,12.13
2019-03-15T01:40:34.271Z,11.05
2019-03-15T01:43:02.619Z,11.50
2019-03-15T01:45:31.329Z,11.78
2019-03-15T01:47:59.683Z,10.90
2019-03-15T01:50:27.977Z,11.38
2019-03-15T01:52:56.403Z,10.45
2019-03-15T01:55:24.755Z,11.48
2019-03-15T01:57:53.049Z,11.05
2019-03-15T02:00:21.513Z,10.98
2019-03-15T02:02:49.854Z,10.35
2019-03-15T02:05:18.158Z,10.48
2019-03-15T02:07:46.579Z,10.68
2019-03-15T02:10:14.926Z,12.03
2019-03-15T02:12:43.272Z,11.00
2019-03-15T02:15:12.376Z,10.65
2019-03-15T02:17:40.764Z,11.05
2019-03-15T02:20:09.647Z,11.10
2019-03-15T02:22:38.840Z,10.43
2019-03-15T02:25:07.126Z,11.43
2019-03-15T02:27:35.513Z,10.98
2019-03-15T02:30:05.639Z,11.05
2019-03-15T02:32:34.023Z,12.10
2019-03-15T02:35:02.401Z,11.88
2019-03-15T02:37:30.822Z,11.03
2019-03-15T02:39:59.201Z,11.12
2019-03-15T02:42:27.586Z,11.90
2019-03-15T02:44:55.969Z,10.85
2019-03-15T02:47:24.356Z,10.35
2019-03-15T02:49:52.823Z,12.00
2019-03-15T02:52:21.675Z,10.45
2019-03-15T02:54:50.058Z,11.25
2019-03-15T02:57:18.435Z,10.98
2019-03-15T02:59:47.431Z,11.53
2019-03-15T03:02:16.037Z,10.95
2019-03-15T03:04:44.428Z,10.45
2019-03-15T03:07:12.821Z,11.10
2019-03-15T03:09:41.191Z,11.75
2019-03-15T03:12:09.548Z,11.22
2019-03-15T03:14:37.916Z,12.10
2019-03-15T03:17:06.289Z,11.63
2019-03-15T03:19:34.679Z,12.13
2019-03-15T03:22:03.051Z,10.98
2019-03-15T03:24:31.673Z,11.80
2019-03-15T03:27:00.045Z,11.38
2019-03-15T03:29:28.460Z,10.15
2019-03-15T03:31:56.816Z,12.70
2019-03-15T03:34:25.173Z,12.37
2019-03-15T03:36:57.640Z,11.63
2019-03-15T03:39:23.530Z,10.72
2019-03-15T03:41:51.879Z,12.35
2019-03-15T03:44:20.224Z,11.20
2019-03-15T03:46:48.575Z,12.15
2019-03-15T03:49:16.883Z,11.85
2019-03-15T03:51:45.263Z,10.75
2019-03-15T03:54:13.572Z,11.18
2019-03-15T03:56:41.959Z,11.05
2019-03-15T03:59:10.439Z,10.00
2019-03-15T04:01:38.857Z,9.93
2019-03-15T04:04:07.171Z,10.85
2019-03-15T04:06:35.510Z,10.43
2019-03-15T04:09:05.364Z,10.13
2019-03-15T04:11:33.742Z,9.43
2019-03-15T04:14:02.228Z,10.40
2019-03-15T04:16:30.680Z,10.15
2019-03-15T04:18:59.010Z,10.03
2019-03-15T04:21:27.369Z,9.88
2019-03-15T04:23:55.749Z,9.55
2019-03-15T04:26:26.471Z,11.03
2019-03-15T04:28:56.943Z,9.15
2019-03-15T04:31:24.844Z,9.70
2019-03-15T04:33:53.197Z,10.43
2019-03-15T04:36:21.609Z,9.20
2019-03-15T04:38:49.953Z,9.25
2019-03-15T04:41:18.234Z,9.35
2019-03-15T04:43:46.539Z,9.55
2019-03-15T04:46:14.849Z,9.95
2019-03-15T04:48:43.229Z,9.55
2019-03-15T04:51:11.634Z,9.68
2019-03-15T04:53:40.008Z,9.75
2019-03-15T04:56:08.360Z,9.98
2019-03-15T04:58:36.670Z,9.50
2019-03-15T05:01:05.063Z,9.38
2019-03-15T05:03:33.412Z,9.55
2019-03-15T05:06:04.037Z,9.53
2019-03-15T05:08:32.497Z,9.78
2019-03-15T05:11:00.849Z,9.50
2019-03-15T05:13:29.279Z,9.45
2019-03-15T05:15:57.634Z,9.33
2019-03-15T05:18:26.014Z,9.05
2019-03-15T05:20:55.108Z,10.93
2019-03-15T05:23:23.460Z,9.23
2019-03-15T05:25:51.838Z,9.58
2019-03-15T05:28:20.217Z,8.68
2019-03-15T05:30:48.567Z,9.33
2019-03-15T05:33:16.876Z,8.90
2019-03-15T05:35:45.267Z,9.05
2019-03-15T05:38:13.559Z,9.23
2019-03-15T05:40:41.902Z,8.68
2019-03-15T05:43:10.234Z,8.55
2019-03-15T05:45:38.597Z,8.95
2019-03-15T05:48:06.934Z,9.23
2019-03-15T05:50:35.249Z,8.83
2019-03-15T05:53:03.536Z,9.08
2019-03-15T05:55:31.911Z,9.78
2019-03-15T05:58:00.312Z,8.83
2019-03-15T06:00:28.682Z,8.80
2019-03-15T06:02:57.111Z,9.23
2019-03-15T06:05:25.444Z,8.88
2019-03-15T06:07:53.756Z,9.03
2019-03-15T06:10:22.102Z,9.40
2019-03-15T06:12:50.463Z,9.30
2019-03-15T06:15:18.859Z,8.38
2019-03-15T06:17:47.203Z,9.18
2019-03-15T06:20:15.615Z,8.30
2019-03-15T06:22:43.974Z,7.92
2019-03-15T06:25:12.367Z,8.90
2019-03-15T06:27:40.736Z,18.48
2019-03-15T06:30:13.587Z,20.57
2019-03-15T06:32:41.982Z,9.10
2019-03-15T06:35:10.396Z,9.18
2019-03-15T06:37:38.741Z,8.43
2019-03-15T06:40:08.931Z,9.45
2019-03-15T06:42:37.269Z,9.73
2019-03-15T06:45:11.285Z,10.35
2019-03-15T06:47:39.637Z,9.35
2019-03-15T06:50:08.722Z,9.88
2019-03-15T06:52:36.999Z,9.65
2019-03-15T06:55:07.463Z,9.08
2019-03-15T06:57:35.869Z,11.05
2019-03-15T07:00:06.689Z,10.15
2019-03-15T07:02:35.032Z,10.30
2019-03-15T07:05:03.802Z,11.65
2019-03-15T07:07:32.184Z,10.93
2019-03-15T07:10:00.539Z,10.48
2019-03-15T07:12:28.854Z,11.63
2019-03-15T07:14:57.240Z,11.93
2019-03-15T07:17:25.583Z,12.75
2019-03-15T07:19:54.563Z,11.73
2019-03-15T07:22:23.211Z,12.28
2019-03-15T07:24:51.598Z,12.82
2019-03-15T07:27:19.983Z,12.98
2019-03-15T07:29:48.372Z,13.65
2019-03-15T07:32:17.694Z,11.97
2019-03-15T07:34:46.085Z,13.20
2019-03-15T07:37:15.359Z,14.15
2019-03-15T07:39:44.302Z,12.35
2019-03-15T07:42:12.662Z,12.55
2019-03-15T07:44:41.015Z,12.03
2019-03-15T07:47:09.413Z,13.83
2019-03-15T07:49:37.801Z,12.18
2019-03-15T07:52:06.189Z,12.28
2019-03-15T07:54:38.245Z,11.48
2019-03-15T07:57:04.626Z,11.83
2019-03-15T07:59:33.013Z,10.55
2019-03-15T08:02:01.508Z,13.10
2019-03-15T08:04:29.898Z,10.88
2019-03-15T08:06:58.326Z,12.07
2019-03-15T08:09:27.074Z,12.18
2019-03-15T08:11:55.426Z,11.95
2019-03-15T08:14:23.776Z,12.33
2019-03-15T08:16:52.121Z,11.73
2019-03-15T08:19:20.471Z,11.43
2019-03-15T08:21:48.785Z,11.05
2019-03-15T08:24:17.511Z,10.70
2019-03-15T08:26:45.911Z,12.20
2019-03-15T08:29:14.288Z,11.00
2019-03-15T08:31:42.675Z,10.35
2019-03-15T08:34:11.106Z,10.20
2019-03-15T08:36:39.390Z,10.38
2019-03-15T08:39:07.720Z,10.72
2019-03-15T08:41:48.334Z,10.90
2019-03-15T08:44:16.760Z,10.75
2019-03-15T08:46:45.150Z,12.07
2019-03-15T08:49:13.533Z,11.08
2019-03-15T08:51:41.954Z,9.23
2019-03-15T08:54:11.935Z,10.88
2019-03-15T08:56:40.251Z,11.20
2019-03-15T08:59:08.635Z,9.70
2019-03-15T09:01:37.133Z,10.23
2019-03-15T09:04:05.513Z,9.35
2019-03-15T09:06:33.971Z,12.10
2019-03-15T09:09:02.343Z,11.53
2019-03-15T09:11:30.777Z,11.00
2019-03-15T09:13:59.235Z,10.63
2019-03-15T09:16:27.582Z,13.98
2019-03-15T09:18:56.003Z,12.37
2019-03-15T09:21:24.360Z,10.45
2019-03-15T09:23:52.744Z,14.18
2019-03-15T09:26:21.105Z,12.68
2019-03-15T09:28:49.492Z,11.35
2019-03-15T09:31:17.779Z,11.83
2019-03-15T09:33:46.083Z,10.53
2019-03-15T09:36:14.471Z,10.90
2019-03-15T09:38:42.865Z,10.70
2019-03-15T09:41:11.231Z,10.75
2019-03-15T09:43:39.627Z,11.28
2019-03-15T09:46:08.007Z,10.82
2019-03-15T09:48:36.401Z,10.70
2019-03-15T09:51:04.812Z,10.65
2019-03-15T09:53:33.192Z,10.95
2019-03-15T09:56:01.600Z,11.75
2019-03-15T09:58:30.009Z,11.38
2019-03-15T10:00:59.961Z,10.50
2019-03-15T10:03:28.471Z,9.28
2019-03-15T10:05:56.900Z,6.78
2019-03-15T10:08:25.246Z,7.75
2019-03-15T10:10:53.617Z,9.05
2019-03-15T10:13:22.077Z,8.93
2019-03-15T10:15:50.553Z,9.10
2019-03-15T10:18:19.036Z,9.53
2019-03-15T10:20:47.510Z,9.58
2019-03-15T10:23:15.883Z,9.80
2019-03-15T10:25:47.552Z,9.43
2019-03-15T10:28:14.317Z,9.40
2019-03-15T10:30:42.691Z,10.30
2019-03-15T10:33:11.059Z,11.05
2019-03-15T10:35:39.374Z,9.48
2019-03-15T10:38:07.763Z,10.20
2019-03-15T10:40:36.152Z,10.45
2019-03-15T10:43:04.544Z,10.58
2019-03-15T10:45:32.949Z,10.70
2019-03-15T10:48:01.324Z,9.90
2019-03-15T10:50:29.745Z,8.75
2019-03-15T10:52:58.093Z,9.30
2019-03-15T10:55:26.443Z,9.35
2019-03-15T10:57:54.847Z,8.70
2019-03-15T11:00:23.259Z,9.83
2019-03-15T11:02:51.743Z,10.63
2019-03-15T11:05:21.742Z,8.88
2019-03-15T11:07:50.363Z,9.08
2019-03-15T11:10:19.012Z,8.75
2019-03-15T11:12:47.736Z,8.25
2019-03-15T11:15:16.719Z,8.73
2019-03-15T11:17:45.076Z,7.87
2019-03-15T11:20:13.752Z,6.95
2019-03-15T11:22:42.125Z,7.53
2019-03-15T11:25:11.547Z,7.62
2019-03-15T11:27:39.938Z,7.78
2019-03-15T11:30:11.604Z,7.55
2019-03-15T11:32:39.979Z,7.15
2019-03-15T11:35:09.340Z,6.65
2019-03-15T11:37:37.713Z,5.85
2019-03-15T11:40:19.138Z,5.80
2019-03-15T11:42:46.524Z,6.05
2019-03-15T11:45:14.993Z,5.92
2019-03-15T11:48:02.537Z,6.45
2019-03-15T11:50:17.721Z,5.83
2019-03-15T11:52:46.073Z,5.00
2019-03-15T11:55:14.849Z,5.33
2019-03-15T11:57:45.018Z,6.20
2019-03-15T12:00:15.521Z,5.12
2019-03-15T12:02:43.897Z,5.08
2019-03-15T12:05:12.251Z,5.42
2019-03-15T12:07:40.549Z,5.92
2019-03-15T12:10:11.347Z,5.45
2019-03-15T12:12:39.803Z,5.90
2019-03-15T12:15:12.809Z,5.45
2019-03-15T12:17:41.660Z,6.17
2019-03-15T12:20:11.144Z,6.17
2019-03-15T12:22:40.541Z,6.83
2019-03-15T12:25:14.905Z,6.60
2019-03-15T12:27:43.252Z,6.67
2019-03-15T12:30:13.966Z,6.62
2019-03-15T12:32:43.611Z,6.03
2019-03-15T12:35:13.114Z,5.67
2019-03-15T12:37:41.458Z,6.05
2019-03-15T12:40:12.447Z,6.70
2019-03-15T12:42:40.850Z,6.20
2019-03-15T12:45:10.647Z,6.30
2019-03-15T12:47:39.038Z,6.25
2019-03-15T12:50:11.530Z,6.33
2019-03-15T12:52:47.162Z,6.67
2019-03-15T12:55:13.984Z,6.53
2019-03-15T12:57:42.284Z,6.15
2019-03-15T13:00:17.771Z,4.12
2019-03-15T13:02:46.085Z,4.05
2019-03-15T13:05:14.464Z,3.80
2019-03-15T13:07:42.935Z,3.80
2019-03-15T13:10:21.186Z,4.58
2019-03-15T13:12:49.563Z,4.65
2019-03-15T13:15:17.935Z,4.80
2019-03-15T13:17:46.318Z,4.72
2019-03-15T13:20:15.879Z,4.15
2019-03-15T13:22:44.328Z,3.20
2019-03-15T13:25:13.171Z,3.62
2019-03-15T13:27:41.596Z,5.65
2019-03-15T13:30:11.567Z,4.55
2019-03-15T13:32:39.844Z,3.25
2019-03-15T13:35:08.332Z,4.15
2019-03-15T13:37:36.752Z,4.50
2019-03-15T13:40:08.392Z,4.83
2019-03-15T13:42:36.783Z,4.28
2019-03-15T13:45:08.450Z,3.37
2019-03-15T13:47:36.811Z,2.98
2019-03-15T13:50:11.565Z,3.25
2019-03-15T13:52:39.940Z,4.30
2019-03-15T13:55:08.315Z,12.82
2019-03-15T13:57:36.718Z,8.00
2019-03-15T14:00:08.356Z,4.78
2019-03-15T14:02:36.745Z,3.75
2019-03-15T14:05:05.763Z,4.25
2019-03-15T14:07:34.095Z,3.25
2019-03-15T14:10:04.119Z,2.55
2019-03-15T14:12:32.477Z,2.75
2019-03-15T14:15:00.818Z,2.65
2019-03-15T14:17:29.247Z,3.08
2019-03-15T14:19:58.063Z,2.90
2019-03-15T14:22:26.412Z,2.70
2019-03-15T14:24:54.796Z,3.35
2019-03-15T14:27:36.671Z,3.70
2019-03-15T14:29:53.208Z,4.42
2019-03-15T14:32:21.555Z,3.80
2019-03-15T14:34:49.859Z,4.10
2019-03-15T14:37:18.169Z,3.45
2019-03-15T14:39:46.540Z,3.52
2019-03-15T14:42:14.926Z,4.00
2019-03-15T14:44:43.535Z,4.90
2019-03-15T14:47:11.989Z,5.40
2019-03-15T14:49:41.754Z,4.97
2019-03-15T14:52:10.098Z,5.72
2019-03-15T14:54:38.446Z,4.87
2019-03-15T14:57:06.795Z,4.65
2019-03-15T14:59:35.372Z,5.50
2019-03-15T15:02:03.695Z,4.67
2019-03-15T15:04:32.116Z,4.65
2019-03-15T15:07:00.587Z,5.08
2019-03-15T15:09:28.939Z,4.62
2019-03-15T15:11:57.275Z,5.35
2019-03-15T15:14:25.661Z,5.60
2019-03-15T15:16:54.045Z,6.00
2019-03-15T15:19:22.994Z,6.35
2019-03-15T15:21:52.968Z,7.12
2019-03-15T15:24:21.361Z,7.50
2019-03-15T15:26:49.760Z,7.08
2019-03-15T15:29:18.065Z,7.33
2019-03-15T15:31:46.453Z,6.17
2019-03-15T15:34:14.843Z,5.75
2019-03-15T15:36:43.184Z,7.53
2019-03-15T15:39:11.550Z,6.67
2019-03-15T15:41:39.932Z,6.80
2019-03-15T15:44:08.307Z,7.03
2019-03-15T15:46:36.696Z,8.10
2019-03-15T15:49:05.097Z,8.90
2019-03-15T15:51:35.053Z,7.28
2019-03-15T15:54:03.448Z,8.40
2019-03-15T15:56:31.863Z,7.33
2019-03-15T15:59:02.923Z,7.22
2019-03-15T16:01:30.257Z,6.45
2019-03-15T16:03:58.677Z,6.45
2019-03-15T16:06:27.019Z,7.03
2019-03-15T16:08:55.409Z,7.55
2019-03-15T16:11:23.848Z,7.60
2019-03-15T16:13:52.223Z,7.72
2019-03-15T16:16:20.567Z,7.53
2019-03-15T16:18:49.027Z,7.70
2019-03-15T16:21:17.707Z,7.42
2019-03-15T16:23:46.059Z,7.95
2019-03-15T16:26:14.394Z,8.25
2019-03-15T16:28:42.760Z,7.83
2019-03-15T16:31:11.123Z,8.73
2019-03-15T16:33:39.441Z,8.15
2019-03-15T16:36:07.771Z,9.10
2019-03-15T16:38:36.126Z,9.55
2019-03-15T16:41:04.540Z,9.05
2019-03-15T16:43:32.917Z,9.83
2019-03-15T16:46:01.275Z,9.00
2019-03-15T16:48:29.738Z,8.90
2019-03-15T16:50:58.094Z,10.80
2019-03-15T16:53:27.809Z,9.75
2019-03-15T16:55:56.192Z,9.48
2019-03-15T16:58:24.497Z,9.63
2019-03-15T17:00:52.951Z,10.25
2019-03-15T17:03:24.256Z,9.20
2019-03-15T17:05:52.651Z,8.78
2019-03-15T17:08:21.295Z,9.33
2019-03-15T17:10:50.523Z,7.28
2019-03-15T17:13:18.900Z,8.13
2019-03-15T17:15:47.250Z,7.90
2019-03-15T17:18:15.649Z,8.25
2019-03-15T17:20:43.970Z,8.88
2019-03-15T17:23:12.430Z,8.50
2019-03-15T17:25:41.725Z,9.33
2019-03-15T17:28:10.106Z,9.65
2019-03-15T17:30:38.607Z,11.33
2019-03-15T17:33:06.979Z,9.88
2019-03-15T17:35:35.292Z,9.83
2019-03-15T17:38:03.706Z,9.68
2019-03-15T17:40:32.075Z,9.95
2019-03-15T17:43:00.454Z,10.43
2019-03-15T17:45:28.838Z,11.30
2019-03-15T17:47:57.231Z,10.75
2019-03-15T17:50:28.561Z,9.38
2019-03-15T17:52:56.905Z,9.30
2019-03-15T17:55:25.319Z,9.65
2019-03-15T17:57:53.695Z,11.57
2019-03-15T18:00:26.983Z,10.58
2019-03-15T18:02:55.653Z,11.10
2019-03-15T18:05:24.060Z,11.45
2019-03-15T18:07:52.411Z,12.20
2019-03-15T18:10:20.760Z,14.00
2019-03-15T18:12:49.047Z,14.23
2019-03-15T18:15:17.437Z,13.62
2019-03-15T18:17:45.852Z,14.03
2019-03-15T18:20:14.217Z,13.88
2019-03-15T18:22:42.570Z,15.48
2019-03-15T18:25:11.433Z,15.15
2019-03-15T18:27:39.786Z,15.60
2019-03-15T18:30:13.443Z,15.10
2019-03-15T18:32:45.349Z,15.63
2019-03-15T18:35:13.053Z,14.83
2019-03-15T18:37:41.407Z,15.08
2019-03-15T18:40:11.908Z,16.17
2019-03-15T18:42:40.466Z,17.73
2019-03-15T18:45:13.480Z,20.00
2019-03-15T18:47:41.896Z,20.30
2019-03-15T18:50:27.808Z,18.77
2019-03-15T18:52:56.198Z,18.73
2019-03-15T18:55:24.604Z,17.77
2019-03-15T18:57:52.963Z,18.85
2019-03-15T19:00:23.132Z,18.27
2019-03-15T19:02:51.563Z,17.67
2019-03-15T19:05:20.043Z,18.95
2019-03-15T19:07:48.486Z,18.65
2019-03-15T19:10:17.157Z,19.90
2019-03-15T19:12:45.527Z,18.37
2019-03-15T19:15:15.441Z,19.27
2019-03-15T19:17:43.728Z,19.70
2019-03-15T19:20:13.423Z,20.05
2019-03-15T19:22:41.812Z,19.67
2019-03-15T19:25:11.473Z,20.10
2019-03-15T19:27:39.877Z,20.37
2019-03-15T19:30:16.223Z,20.02
2019-03-15T19:32:44.592Z,20.05
2019-03-15T19:35:13.176Z,21.73
2019-03-15T19:37:41.653Z,21.02
2019-03-15T19:40:14.989Z,20.75
2019-03-15T19:42:45.484Z,21.50
2019-03-15T19:45:15.075Z,23.62
2019-03-15T19:47:43.453Z,22.90
2019-03-15T19:50:16.447Z,22.62
2019-03-15T19:52:44.836Z,24.27
2019-03-15T19:55:15.350Z,22.35
2019-03-15T19:57:44.229Z,23.15
2019-03-15T20:00:18.054Z,24.10
2019-03-15T20:02:46.484Z,23.32
2019-03-15T20:05:14.876Z,23.62
2019-03-15T20:07:43.367Z,24.10
2019-03-15T20:10:17.109Z,24.15
2019-03-15T20:12:46.038Z,24.50
2019-03-15T20:15:15.701Z,24.10
2019-03-15T20:17:44.079Z,23.62
2019-03-15T20:20:16.667Z,21.23
2019-03-15T20:22:45.135Z,21.63
2019-03-15T20:25:14.968Z,21.05
2019-03-15T20:27:43.333Z,21.07
2019-03-15T20:30:26.286Z,20.97
2019-03-15T20:32:51.623Z,20.88
2019-03-15T20:35:19.973Z,19.80
2019-03-15T20:37:48.351Z,19.05
2019-03-15T20:40:16.742Z,17.90
2019-03-15T20:42:45.124Z,18.30
2019-03-15T20:45:24.466Z,18.15
2019-03-15T20:47:52.791Z,17.85
2019-03-15T20:50:21.125Z,18.10
2019-03-15T20:52:49.495Z,17.52
2019-03-15T20:55:17.885Z,18.07
2019-03-15T20:57:46.267Z,16.05
2019-03-15T21:00:17.467Z,16.35
2019-03-15T21:02:46.017Z,16.15
2019-03-15T21:05:14.347Z,14.90
2019-03-15T21:07:44.006Z,15.35
2019-03-15T21:10:15.630Z,14.03
2019-03-15T21:12:43.913Z,13.90
2019-03-15T21:15:13.847Z,13.70
2019-03-15T21:17:42.327Z,13.50
2019-03-15T21:20:18.501Z,12.47
2019-03-15T21:22:46.851Z,13.30
2019-03-15T21:25:15.203Z,11.93
2019-03-15T21:27:53.806Z,11.45
2019-03-15T21:30:15.716Z,11.97
2019-03-15T21:32:44.109Z,11.88
2019-03-15T21:35:12.911Z,13.43
2019-03-15T21:37:41.266Z,13.70
2019-03-15T21:40:11.393Z,13.83
2019-03-15T21:42:39.760Z,14.38
2019-03-15T21:45:10.282Z,14.65
2019-03-15T21:47:38.634Z,14.75
2019-03-15T21:50:21.600Z,14.55
2019-03-15T21:52:49.972Z,15.35
2019-03-15T21:55:18.447Z,15.32
2019-03-15T21:57:46.864Z,16.07
2019-03-15T22:00:19.267Z,15.78
2019-03-15T22:02:47.548Z,13.90
2019-03-15T22:05:15.912Z,15.53
2019-03-15T22:07:44.367Z,15.25
2019-03-15T22:10:18.858Z,14.83
2019-03-15T22:12:47.231Z,12.82
2019-03-15T22:15:15.603Z,14.55
2019-03-15T22:17:43.986Z,13.83
2019-03-15T22:20:16.689Z,14.73
2019-03-15T22:22:45.041Z,15.75
2019-03-15T22:25:13.413Z,13.50
2019-03-15T22:27:41.805Z,13.72
2019-03-15T22:30:12.419Z,13.53
2019-03-15T22:32:40.824Z,11.05
2019-03-15T22:35:09.236Z,13.60
2019-03-15T22:37:37.839Z,12.90
2019-03-15T22:40:09.060Z,13.03
2019-03-15T22:42:37.772Z,13.48
2019-03-15T22:45:08.479Z,13.88
2019-03-15T22:47:36.941Z,13.38
2019-03-15T22:50:07.504Z,14.58
2019-03-15T22:52:35.899Z,15.75
2019-03-15T22:55:05.078Z,12.93
2019-03-15T22:57:33.423Z,13.65
2019-03-15T23:00:01.748Z,11.83
2019-03-15T23:02:30.156Z,12.25
2019-03-15T23:04:58.534Z,12.80
2019-03-15T23:07:26.828Z,12.30
2019-03-15T23:09:55.205Z,10.43
2019-03-15T23:12:23.764Z,12.30
2019-03-15T23:14:52.118Z,12.05
2019-03-15T23:17:20.477Z,12.00
2019-03-15T23:19:48.890Z,11.68
2019-03-15T23:22:18.544Z,11.10
2019-03-15T23:24:46.852Z,12.03
2019-03-15T23:27:15.253Z,11.97
2019-03-15T23:29:43.640Z,10.63
2019-03-15T23:32:11.992Z,10.90
2019-03-15T23:34:40.346Z,12.53
2019-03-15T23:37:08.714Z,12.10
2019-03-15T23:39:37.066Z,11.43
2019-03-15T23:42:05.493Z,12.60
2019-03-15T23:44:33.938Z,12.45
2019-03-15T23:47:02.536Z,11.50
2019-03-15T23:49:31.306Z,12.13
2019-03-15T23:52:00.143Z,11.85
2019-03-15T23:54:28.697Z,12.43
2019-03-15T23:56:57.277Z,12.25
2019-03-15T23:59:25.810Z,12.10
